sensor_id;sensor_type;location;lat;lon;timestamp;pressure;altitude;pressure_sealevel;temperature;humidity
72486;BME280;60509;47.308;-122.428;2023-04-25T00:01:33;101162.89;;;19.69;20.89
72486;BME280;60509;47.308;-122.428;2023-04-25T00:03:59;101152.66;;;19.94;21.59
72486;BME280;60509;47.308;-122.428;2023-04-25T00:06:25;101156.34;;;20.32;21.78
72486;BME280;60509;47.308;-122.428;2023-04-25T00:08:51;101157.28;;;20.18;21.09
72486;BME280;60509;47.308;-122.428;2023-04-25T00:11:17;101157.78;;;19.22;21.11
72486;BME280;60509;47.308;-122.428;2023-04-25T00:13:43;101157.74;;;20.16;20.37
72486;BME280;60509;47.308;-122.428;2023-04-25T00:16:09;101160.16;;;20.10;20.55
72486;BME280;60509;47.308;-122.428;2023-04-25T00:18:35;101161.27;;;19.60;20.34
72486;BME280;60509;47.308;-122.428;2023-04-25T00:21:00;101160.69;;;20.44;20.51
72486;BME280;60509;47.308;-122.428;2023-04-25T00:23:26;101161.96;;;20.82;19.83
72486;BME280;60509;47.308;-122.428;2023-04-25T00:25:52;101162.49;;;20.75;20.08
72486;BME280;60509;47.308;-122.428;2023-04-25T00:28:41;101165.76;;;21.46;18.94
72486;BME280;60509;47.308;-122.428;2023-04-25T00:30:44;101165.17;;;24.50;17.58
72486;BME280;60509;47.308;-122.428;2023-04-25T00:33:10;101166.53;;;23.13;18.51
72486;BME280;60509;47.308;-122.428;2023-04-25T00:35:36;101163.59;;;24.70;17.53
72486;BME280;60509;47.308;-122.428;2023-04-25T00:38:02;101165.94;;;21.95;19.40
72486;BME280;60509;47.308;-122.428;2023-04-25T00:40:28;101165.29;;;21.23;20.18
72486;BME280;60509;47.308;-122.428;2023-04-25T00:42:54;101166.35;;;21.92;19.80
72486;BME280;60509;47.308;-122.428;2023-04-25T00:45:20;101168.80;;;24.49;17.93
72486;BME280;60509;47.308;-122.428;2023-04-25T00:47:46;101171.43;;;24.18;17.50
72486;BME280;60509;47.308;-122.428;2023-04-25T00:50:12;101172.77;;;22.24;18.75
72486;BME280;60509;47.308;-122.428;2023-04-25T00:52:39;101174.90;;;21.83;19.76
72486;BME280;60509;47.308;-122.428;2023-04-25T00:55:03;101175.25;;;19.83;20.30
72486;BME280;60509;47.308;-122.428;2023-04-25T00:57:29;101177.92;;;19.07;21.14
72486;BME280;60509;47.308;-122.428;2023-04-25T00:59:55;101174.47;;;19.66;21.18
72486;BME280;60509;47.308;-122.428;2023-04-25T01:02:21;101177.03;;;19.91;20.96
72486;BME280;60509;47.308;-122.428;2023-04-25T01:04:48;101180.57;;;19.74;21.43
72486;BME280;60509;47.308;-122.428;2023-04-25T01:07:13;101182.23;;;19.21;21.51
72486;BME280;60509;47.308;-122.428;2023-04-25T01:09:38;101182.02;;;19.01;21.62
72486;BME280;60509;47.308;-122.428;2023-04-25T01:12:05;101182.11;;;17.92;22.10
72486;BME280;60509;47.308;-122.428;2023-04-25T01:14:30;101179.35;;;16.37;23.03
72486;BME280;60509;47.308;-122.428;2023-04-25T01:16:57;101181.74;;;17.88;22.48
72486;BME280;60509;47.308;-122.428;2023-04-25T01:19:22;101181.19;;;18.84;22.10
72486;BME280;60509;47.308;-122.428;2023-04-25T01:21:48;101187.13;;;18.51;22.09
72486;BME280;60509;47.308;-122.428;2023-04-25T01:24:14;101188.08;;;18.40;21.89
72486;BME280;60509;47.308;-122.428;2023-04-25T01:26:40;101187.53;;;19.13;21.74
72486;BME280;60509;47.308;-122.428;2023-04-25T01:29:07;101192.31;;;18.92;21.73
72486;BME280;60509;47.308;-122.428;2023-04-25T01:31:32;101195.95;;;19.33;22.63
72486;BME280;60509;47.308;-122.428;2023-04-25T01:33:58;101197.50;;;19.30;22.23
72486;BME280;60509;47.308;-122.428;2023-04-25T01:36:24;101201.36;;;19.42;21.95
72486;BME280;60509;47.308;-122.428;2023-04-25T01:38:50;101202.22;;;19.64;22.12
72486;BME280;60509;47.308;-122.428;2023-04-25T01:41:16;101203.59;;;18.41;22.64
72486;BME280;60509;47.308;-122.428;2023-04-25T01:43:42;101202.54;;;19.38;21.59
72486;BME280;60509;47.308;-122.428;2023-04-25T01:46:07;101208.94;;;19.29;21.37
72486;BME280;60509;47.308;-122.428;2023-04-25T01:48:33;101213.54;;;18.94;22.19
72486;BME280;60509;47.308;-122.428;2023-04-25T01:50:59;101208.29;;;19.17;22.54
72486;BME280;60509;47.308;-122.428;2023-04-25T01:53:25;101207.53;;;18.58;22.95
72486;BME280;60509;47.308;-122.428;2023-04-25T01:55:51;101208.83;;;14.86;25.66
72486;BME280;60509;47.308;-122.428;2023-04-25T01:58:17;101211.10;;;15.52;25.30
72486;BME280;60509;47.308;-122.428;2023-04-25T02:00:43;101213.10;;;16.66;24.62
72486;BME280;60509;47.308;-122.428;2023-04-25T02:03:09;101213.86;;;15.88;24.72
72486;BME280;60509;47.308;-122.428;2023-04-25T02:05:36;101211.13;;;17.06;24.07
72486;BME280;60509;47.308;-122.428;2023-04-25T02:08:08;101215.08;;;17.59;23.58
72486;BME280;60509;47.308;-122.428;2023-04-25T02:10:32;101213.68;;;17.39;23.58
72486;BME280;60509;47.308;-122.428;2023-04-25T02:12:53;101208.01;;;17.79;23.33
72486;BME280;60509;47.308;-122.428;2023-04-25T02:15:19;101207.36;;;17.42;23.36
72486;BME280;60509;47.308;-122.428;2023-04-25T02:17:45;101210.17;;;16.96;23.63
72486;BME280;60509;47.308;-122.428;2023-04-25T02:20:11;101214.64;;;17.30;23.46
72486;BME280;60509;47.308;-122.428;2023-04-25T02:22:37;101211.81;;;16.68;23.67
72486;BME280;60509;47.308;-122.428;2023-04-25T02:25:03;101214.13;;;16.64;23.92
72486;BME280;60509;47.308;-122.428;2023-04-25T02:27:29;101209.30;;;16.88;23.66
72486;BME280;60509;47.308;-122.428;2023-04-25T02:29:55;101209.60;;;17.22;23.41
72486;BME280;60509;47.308;-122.428;2023-04-25T02:32:21;101212.05;;;16.74;23.82
72486;BME280;60509;47.308;-122.428;2023-04-25T02:34:47;101211.73;;;17.25;23.71
72486;BME280;60509;47.308;-122.428;2023-04-25T02:37:13;101214.45;;;17.22;23.39
72486;BME280;60509;47.308;-122.428;2023-04-25T02:39:39;101215.82;;;14.04;25.87
72486;BME280;60509;47.308;-122.428;2023-04-25T02:42:05;101219.19;;;15.50;24.98
72486;BME280;60509;47.308;-122.428;2023-04-25T02:44:31;101225.17;;;15.28;24.97
72486;BME280;60509;47.308;-122.428;2023-04-25T02:46:57;101228.97;;;16.45;24.83
72486;BME280;60509;47.308;-122.428;2023-04-25T02:49:23;101227.75;;;17.21;24.61
72486;BME280;60509;47.308;-122.428;2023-04-25T02:51:49;101228.14;;;17.47;24.33
72486;BME280;60509;47.308;-122.428;2023-04-25T02:54:15;101228.63;;;17.19;24.60
72486;BME280;60509;47.308;-122.428;2023-04-25T02:56:41;101228.28;;;17.52;24.50
72486;BME280;60509;47.308;-122.428;2023-04-25T02:59:07;101239.40;;;17.73;24.29
72486;BME280;60509;47.308;-122.428;2023-04-25T03:01:33;101238.96;;;17.73;24.49
72486;BME280;60509;47.308;-122.428;2023-04-25T03:03:59;101246.42;;;17.86;24.88
72486;BME280;60509;47.308;-122.428;2023-04-25T03:06:25;101250.36;;;17.74;24.89
72486;BME280;60509;47.308;-122.428;2023-04-25T03:08:51;101257.30;;;18.04;24.85
72486;BME280;60509;47.308;-122.428;2023-04-25T03:11:17;101261.25;;;17.83;25.20
72486;BME280;60509;47.308;-122.428;2023-04-25T03:13:43;101266.91;;;18.12;24.94
72486;BME280;60509;47.308;-122.428;2023-04-25T03:16:09;101273.46;;;17.88;25.10
72486;BME280;60509;47.308;-122.428;2023-04-25T03:18:35;101273.48;;;17.67;25.35
72486;BME280;60509;47.308;-122.428;2023-04-25T03:21:01;101279.08;;;18.35;25.29
72486;BME280;60509;47.308;-122.428;2023-04-25T03:23:27;101281.94;;;18.13;25.56
72486;BME280;60509;47.308;-122.428;2023-04-25T03:25:53;101284.12;;;17.86;25.65
72486;BME280;60509;47.308;-122.428;2023-04-25T03:28:19;101283.73;;;18.13;25.66
72486;BME280;60509;47.308;-122.428;2023-04-25T03:30:45;101287.42;;;18.09;25.66
72486;BME280;60509;47.308;-122.428;2023-04-25T03:33:11;101291.84;;;18.12;25.69
72486;BME280;60509;47.308;-122.428;2023-04-25T03:35:37;101294.36;;;18.40;25.64
72486;BME280;60509;47.308;-122.428;2023-04-25T03:38:03;101297.43;;;18.04;25.90
72486;BME280;60509;47.308;-122.428;2023-04-25T03:40:29;101302.26;;;18.29;25.90
72486;BME280;60509;47.308;-122.428;2023-04-25T03:42:55;101302.45;;;18.11;25.98
72486;BME280;60509;47.308;-122.428;2023-04-25T03:45:21;101304.76;;;17.97;26.22
72486;BME280;60509;47.308;-122.428;2023-04-25T03:47:47;101304.45;;;18.53;26.03
72486;BME280;60509;47.308;-122.428;2023-04-25T03:50:13;101311.16;;;18.32;25.91
72486;BME280;60509;47.308;-122.428;2023-04-25T03:52:39;101316.82;;;18.58;25.85
72486;BME280;60509;47.308;-122.428;2023-04-25T03:55:05;101319.32;;;18.23;25.87
72486;BME280;60509;47.308;-122.428;2023-04-25T03:57:31;101322.80;;;18.17;25.97
72486;BME280;60509;47.308;-122.428;2023-04-25T03:59:57;101325.93;;;18.44;25.79
72486;BME280;60509;47.308;-122.428;2023-04-25T04:02:23;101333.08;;;18.27;26.02
72486;BME280;60509;47.308;-122.428;2023-04-25T04:04:49;101336.65;;;18.19;26.28
72486;BME280;60509;47.308;-122.428;2023-04-25T04:07:14;101339.18;;;18.38;26.10
72486;BME280;60509;47.308;-122.428;2023-04-25T04:09:40;101344.42;;;18.66;25.86
72486;BME280;60509;47.308;-122.428;2023-04-25T04:12:06;101345.29;;;17.50;26.46
72486;BME280;60509;47.308;-122.428;2023-04-25T04:14:32;101350.03;;;18.51;26.42
72486;BME280;60509;47.308;-122.428;2023-04-25T04:16:58;101353.37;;;18.15;26.67
72486;BME280;60509;47.308;-122.428;2023-04-25T04:19:25;101353.74;;;18.22;26.49
72486;BME280;60509;47.308;-122.428;2023-04-25T04:21:50;101359.25;;;18.25;26.83
72486;BME280;60509;47.308;-122.428;2023-04-25T04:24:16;101364.11;;;17.74;26.83
72486;BME280;60509;47.308;-122.428;2023-04-25T04:26:42;101366.54;;;18.03;26.73
72486;BME280;60509;47.308;-122.428;2023-04-25T04:29:08;101364.67;;;18.26;26.82
72486;BME280;60509;47.308;-122.428;2023-04-25T04:31:34;101364.98;;;18.65;26.82
72486;BME280;60509;47.308;-122.428;2023-04-25T04:34:00;101364.51;;;18.31;26.95
72486;BME280;60509;47.308;-122.428;2023-04-25T04:36:26;101361.65;;;18.24;26.79
72486;BME280;60509;47.308;-122.428;2023-04-25T04:38:52;101357.85;;;18.50;26.66
72486;BME280;60509;47.308;-122.428;2023-04-25T04:41:18;101362.57;;;18.69;26.83
72486;BME280;60509;47.308;-122.428;2023-04-25T04:43:43;101363.08;;;18.27;26.75
72486;BME280;60509;47.308;-122.428;2023-04-25T04:46:09;101360.71;;;18.39;26.62
72486;BME280;60509;47.308;-122.428;2023-04-25T04:48:35;101361.27;;;18.55;26.73
72486;BME280;60509;47.308;-122.428;2023-04-25T04:51:01;101363.65;;;18.73;26.61
72486;BME280;60509;47.308;-122.428;2023-04-25T04:53:27;101361.57;;;18.65;26.59
72486;BME280;60509;47.308;-122.428;2023-04-25T04:55:53;101362.36;;;18.50;26.65
72486;BME280;60509;47.308;-122.428;2023-04-25T04:58:19;101367.95;;;18.44;26.66
72486;BME280;60509;47.308;-122.428;2023-04-25T05:00:45;101368.15;;;17.85;26.94
72486;BME280;60509;47.308;-122.428;2023-04-25T05:03:11;101369.31;;;18.21;26.77
72486;BME280;60509;47.308;-122.428;2023-04-25T05:05:37;101374.13;;;18.08;26.85
72486;BME280;60509;47.308;-122.428;2023-04-25T05:08:03;101379.72;;;17.66;26.89
72486;BME280;60509;47.308;-122.428;2023-04-25T05:10:29;101382.34;;;17.29;26.91
72486;BME280;60509;47.308;-122.428;2023-04-25T05:12:55;101385.38;;;17.78;26.91
72486;BME280;60509;47.308;-122.428;2023-04-25T05:15:20;101386.98;;;17.23;26.95
72486;BME280;60509;47.308;-122.428;2023-04-25T05:17:46;101394.24;;;17.67;26.95
72486;BME280;60509;47.308;-122.428;2023-04-25T05:20:13;101400.49;;;17.36;26.95
72486;BME280;60509;47.308;-122.428;2023-04-25T05:22:38;101410.62;;;17.47;26.94
72486;BME280;60509;47.308;-122.428;2023-04-25T05:25:05;101422.59;;;17.54;26.83
72486;BME280;60509;47.308;-122.428;2023-04-25T05:27:30;101433.08;;;17.79;26.82
72486;BME280;60509;47.308;-122.428;2023-04-25T05:29:57;101449.31;;;17.72;26.88
72486;BME280;60509;47.308;-122.428;2023-04-25T05:32:22;101455.19;;;17.51;26.87
72486;BME280;60509;47.308;-122.428;2023-04-25T05:34:48;101450.53;;;17.63;26.85
72486;BME280;60509;47.308;-122.428;2023-04-25T05:37:14;101442.45;;;17.42;26.87
72486;BME280;60509;47.308;-122.428;2023-04-25T05:39:40;101444.64;;;17.59;26.82
72486;BME280;60509;47.308;-122.428;2023-04-25T05:42:06;101452.02;;;17.37;26.89
72486;BME280;60509;47.308;-122.428;2023-04-25T05:44:32;101451.13;;;17.30;26.90
72486;BME280;60509;47.308;-122.428;2023-04-25T05:46:58;101448.74;;;17.61;26.81
72486;BME280;60509;47.308;-122.428;2023-04-25T05:49:24;101441.35;;;17.42;26.88
72486;BME280;60509;47.308;-122.428;2023-04-25T05:51:50;101432.13;;;17.52;26.85
72486;BME280;60509;47.308;-122.428;2023-04-25T05:54:16;101432.91;;;17.22;26.92
72486;BME280;60509;47.308;-122.428;2023-04-25T05:56:42;101430.10;;;17.23;26.96
72486;BME280;60509;47.308;-122.428;2023-04-25T05:59:08;101418.60;;;17.53;26.67
72486;BME280;60509;47.308;-122.428;2023-04-25T06:01:34;101417.26;;;17.74;26.49
72486;BME280;60509;47.308;-122.428;2023-04-25T06:04:00;101419.48;;;17.66;26.51
72486;BME280;60509;47.308;-122.428;2023-04-25T06:06:26;101425.75;;;17.18;26.63
72486;BME280;60509;47.308;-122.428;2023-04-25T06:08:51;101418.74;;;17.38;26.59
72486;BME280;60509;47.308;-122.428;2023-04-25T06:11:17;101405.89;;;18.00;26.34
72486;BME280;60509;47.308;-122.428;2023-04-25T06:13:43;101385.31;;;17.71;26.34
72486;BME280;60509;47.308;-122.428;2023-04-25T06:16:09;101365.14;;;17.44;26.45
72486;BME280;60509;47.308;-122.428;2023-04-25T06:18:35;101367.21;;;17.82;26.22
72486;BME280;60509;47.308;-122.428;2023-04-25T06:21:01;101369.35;;;17.34;26.69
72486;BME280;60509;47.308;-122.428;2023-04-25T06:23:27;101368.84;;;17.66;26.47
72486;BME280;60509;47.308;-122.428;2023-04-25T06:25:53;101371.52;;;17.82;26.25
72486;BME280;60509;47.308;-122.428;2023-04-25T06:28:19;101375.87;;;17.54;26.37
72486;BME280;60509;47.308;-122.428;2023-04-25T06:30:43;101385.98;;;17.50;26.28
72486;BME280;60509;47.308;-122.428;2023-04-25T06:33:09;101402.44;;;17.47;26.23
72486;BME280;60509;47.308;-122.428;2023-04-25T06:35:35;101415.31;;;17.46;26.29
72486;BME280;60509;47.308;-122.428;2023-04-25T06:38:01;101421.20;;;17.39;26.20
72486;BME280;60509;47.308;-122.428;2023-04-25T06:40:28;101422.49;;;17.33;26.20
72486;BME280;60509;47.308;-122.428;2023-04-25T06:42:53;101428.06;;;17.68;25.93
72486;BME280;60509;47.308;-122.428;2023-04-25T06:45:19;101428.18;;;17.57;26.02
72486;BME280;60509;47.308;-122.428;2023-04-25T06:47:45;101426.16;;;17.51;25.92
72486;BME280;60509;47.308;-122.428;2023-04-25T06:50:12;101429.59;;;17.39;26.08
72486;BME280;60509;47.308;-122.428;2023-04-25T06:52:37;101433.61;;;17.21;26.07
72486;BME280;60509;47.308;-122.428;2023-04-25T06:55:04;101438.83;;;17.53;25.97
72486;BME280;60509;47.308;-122.428;2023-04-25T06:57:29;101436.30;;;17.17;26.05
72486;BME280;60509;47.308;-122.428;2023-04-25T06:59:55;101429.59;;;17.02;26.01
72486;BME280;60509;47.308;-122.428;2023-04-25T07:02:21;101422.75;;;17.57;25.95
72486;BME280;60509;47.308;-122.428;2023-04-25T07:04:47;101415.88;;;17.66;25.79
72486;BME280;60509;47.308;-122.428;2023-04-25T07:07:13;101415.08;;;17.21;25.93
72486;BME280;60509;47.308;-122.428;2023-04-25T07:09:39;101420.27;;;17.50;25.86
72486;BME280;60509;47.308;-122.428;2023-04-25T07:12:06;101427.69;;;17.40;25.90
72486;BME280;60509;47.308;-122.428;2023-04-25T07:14:31;101426.25;;;17.24;25.92
72486;BME280;60509;47.308;-122.428;2023-04-25T07:16:57;101419.03;;;17.60;25.77
72486;BME280;60509;47.308;-122.428;2023-04-25T07:19:23;101424.28;;;17.12;26.00
72486;BME280;60509;47.308;-122.428;2023-04-25T07:21:49;101422.08;;;17.49;25.81
72486;BME280;60509;47.308;-122.428;2023-04-25T07:24:15;101422.63;;;17.12;25.95
72486;BME280;60509;47.308;-122.428;2023-04-25T07:26:41;101419.41;;;17.46;25.91
72486;BME280;60509;47.308;-122.428;2023-04-25T07:29:07;101421.65;;;17.31;25.88
72486;BME280;60509;47.308;-122.428;2023-04-25T07:31:33;101422.79;;;17.42;25.77
72486;BME280;60509;47.308;-122.428;2023-04-25T07:33:59;101424.04;;;17.22;25.83
72486;BME280;60509;47.308;-122.428;2023-04-25T07:36:25;101433.45;;;17.09;25.96
72486;BME280;60509;47.308;-122.428;2023-04-25T07:38:51;101437.80;;;17.02;25.93
72486;BME280;60509;47.308;-122.428;2023-04-25T07:41:17;101441.37;;;17.10;25.98
72486;BME280;60509;47.308;-122.428;2023-04-25T07:43:43;101448.40;;;17.44;25.88
72486;BME280;60509;47.308;-122.428;2023-04-25T07:46:09;101453.09;;;16.66;26.17
72486;BME280;60509;47.308;-122.428;2023-04-25T07:48:35;101459.27;;;16.91;26.04
72486;BME280;60509;47.308;-122.428;2023-04-25T07:51:01;101463.71;;;16.97;25.99
72486;BME280;60509;47.308;-122.428;2023-04-25T07:53:27;101462.70;;;17.01;25.99
72486;BME280;60509;47.308;-122.428;2023-04-25T07:55:53;101465.62;;;17.11;26.04
72486;BME280;60509;47.308;-122.428;2023-04-25T07:58:19;101472.62;;;17.03;26.05
72486;BME280;60509;47.308;-122.428;2023-04-25T08:00:45;101477.85;;;16.75;26.17
72486;BME280;60509;47.308;-122.428;2023-04-25T08:03:11;101480.36;;;16.88;26.13
72486;BME280;60509;47.308;-122.428;2023-04-25T08:05:37;101482.57;;;17.13;25.70
72486;BME280;60509;47.308;-122.428;2023-04-25T08:08:03;101485.58;;;17.32;25.54
72486;BME280;60509;47.308;-122.428;2023-04-25T08:10:29;101487.69;;;17.49;25.45
72486;BME280;60509;47.308;-122.428;2023-04-25T08:12:55;101487.85;;;17.48;25.35
72486;BME280;60509;47.308;-122.428;2023-04-25T08:15:21;101482.45;;;17.23;25.39
72486;BME280;60509;47.308;-122.428;2023-04-25T08:17:47;101477.29;;;17.24;25.46
72486;BME280;60509;47.308;-122.428;2023-04-25T08:20:13;101474.27;;;16.96;25.61
72486;BME280;60509;47.308;-122.428;2023-04-25T08:22:39;101465.63;;;16.78;25.72
72486;BME280;60509;47.308;-122.428;2023-04-25T08:25:05;101468.50;;;16.53;25.77
72486;BME280;60509;47.308;-122.428;2023-04-25T08:27:31;101469.72;;;17.14;25.50
72486;BME280;60509;47.308;-122.428;2023-04-25T08:29:57;101469.04;;;16.89;25.66
72486;BME280;60509;47.308;-122.428;2023-04-25T08:32:23;101472.08;;;16.76;25.71
72486;BME280;60509;47.308;-122.428;2023-04-25T08:34:49;101472.49;;;17.00;25.62
72486;BME280;60509;47.308;-122.428;2023-04-25T08:37:15;101473.03;;;17.16;25.63
72486;BME280;60509;47.308;-122.428;2023-04-25T08:39:40;101473.46;;;16.91;25.69
72486;BME280;60509;47.308;-122.428;2023-04-25T08:42:07;101472.57;;;17.35;25.34
72486;BME280;60509;47.308;-122.428;2023-04-25T08:44:34;101469.09;;;17.40;25.10
72486;BME280;60509;47.308;-122.428;2023-04-25T08:46:59;101469.68;;;17.57;25.04
72486;BME280;60509;47.308;-122.428;2023-04-25T08:49:25;101473.08;;;17.56;25.04
72486;BME280;60509;47.308;-122.428;2023-04-25T08:51:51;101462.52;;;17.44;25.26
72486;BME280;60509;47.308;-122.428;2023-04-25T08:54:16;101449.17;;;16.94;25.34
72486;BME280;60509;47.308;-122.428;2023-04-25T08:56:45;101444.37;;;16.49;25.66
72486;BME280;60509;47.308;-122.428;2023-04-25T08:59:08;101443.49;;;16.39;25.68
72486;BME280;60509;47.308;-122.428;2023-04-25T09:01:35;101441.43;;;16.37;25.72
72486;BME280;60509;47.308;-122.428;2023-04-25T09:04:00;101443.33;;;16.31;25.68
72486;BME280;60509;47.308;-122.428;2023-04-25T09:06:26;101448.97;;;16.24;25.80
72486;BME280;60509;47.308;-122.428;2023-04-25T09:08:52;101451.64;;;16.14;25.87
72486;BME280;60509;47.308;-122.428;2023-04-25T09:11:19;101453.65;;;16.12;25.85
72486;BME280;60509;47.308;-122.428;2023-04-25T09:13:44;101452.71;;;16.94;25.38
72486;BME280;60509;47.308;-122.428;2023-04-25T09:16:10;101450.35;;;16.61;25.63
72486;BME280;60509;47.308;-122.428;2023-04-25T09:18:37;101443.21;;;17.26;25.12
72486;BME280;60509;47.308;-122.428;2023-04-25T09:21:06;101442.50;;;17.61;25.00
72486;BME280;60509;47.308;-122.428;2023-04-25T09:23:28;101444.04;;;17.03;25.18
72486;BME280;60509;47.308;-122.428;2023-04-25T09:25:54;101448.91;;;17.00;25.32
72486;BME280;60509;47.308;-122.428;2023-04-25T09:28:24;101456.33;;;16.68;25.49
72486;BME280;60509;47.308;-122.428;2023-04-25T09:30:46;101454.19;;;16.56;25.48
72486;BME280;60509;47.308;-122.428;2023-04-25T09:33:12;101450.73;;;16.55;25.55
72486;BME280;60509;47.308;-122.428;2023-04-25T09:35:40;101449.93;;;16.53;25.57
72486;BME280;60509;47.308;-122.428;2023-04-25T09:38:08;101448.52;;;16.24;25.73
72486;BME280;60509;47.308;-122.428;2023-04-25T09:40:31;101449.04;;;16.59;25.53
72486;BME280;60509;47.308;-122.428;2023-04-25T09:42:56;101448.23;;;16.56;25.51
72486;BME280;60509;47.308;-122.428;2023-04-25T09:45:22;101451.98;;;16.73;25.67
72486;BME280;60509;47.308;-122.428;2023-04-25T09:47:48;101463.60;;;16.75;25.42
72486;BME280;60509;47.308;-122.428;2023-04-25T09:50:15;101463.71;;;16.91;25.24
72486;BME280;60509;47.308;-122.428;2023-04-25T09:52:40;101457.08;;;17.38;25.10
72486;BME280;60509;47.308;-122.428;2023-04-25T09:55:06;101460.29;;;17.65;24.98
72486;BME280;60509;47.308;-122.428;2023-04-25T09:57:32;101464.59;;;17.30;25.23
72486;BME280;60509;47.308;-122.428;2023-04-25T10:00:00;101463.09;;;16.90;25.33
72486;BME280;60509;47.308;-122.428;2023-04-25T10:02:26;101463.69;;;16.70;25.37
72486;BME280;60509;47.308;-122.428;2023-04-25T10:04:51;101467.33;;;16.61;25.51
72486;BME280;60509;47.308;-122.428;2023-04-25T10:07:17;101464.40;;;16.59;25.49
72486;BME280;60509;47.308;-122.428;2023-04-25T10:09:42;101465.00;;;16.44;25.48
72486;BME280;60509;47.308;-122.428;2023-04-25T10:12:08;101467.95;;;16.44;25.55
72486;BME280;60509;47.308;-122.428;2023-04-25T10:14:34;101474.11;;;16.12;25.70
72486;BME280;60509;47.308;-122.428;2023-04-25T10:17:00;101477.34;;;16.29;25.63
72486;BME280;60509;47.308;-122.428;2023-04-25T10:19:26;101480.95;;;16.66;25.45
72486;BME280;60509;47.308;-122.428;2023-04-25T10:21:55;101476.02;;;17.17;25.18
72486;BME280;60509;47.308;-122.428;2023-04-25T10:24:19;101475.64;;;16.98;25.13
72486;BME280;60509;47.308;-122.428;2023-04-25T10:26:44;101475.65;;;17.09;25.08
72486;BME280;60509;47.308;-122.428;2023-04-25T10:29:10;101477.11;;;17.15;25.33
72486;BME280;60509;47.308;-122.428;2023-04-25T10:31:45;101487.46;;;16.77;25.41
72486;BME280;60509;47.308;-122.428;2023-04-25T10:34:02;101498.74;;;16.99;25.41
72486;BME280;60509;47.308;-122.428;2023-04-25T10:36:32;101499.51;;;16.39;25.55
72486;BME280;60509;47.308;-122.428;2023-04-25T10:38:54;101500.53;;;16.17;25.60
72486;BME280;60509;47.308;-122.428;2023-04-25T10:41:20;101501.52;;;16.16;25.51
72486;BME280;60509;47.308;-122.428;2023-04-25T10:43:46;101506.13;;;16.19;25.47
72486;BME280;60509;47.308;-122.428;2023-04-25T10:46:17;101510.62;;;16.14;25.45
72486;BME280;60509;47.308;-122.428;2023-04-25T10:48:37;101515.02;;;15.69;25.74
72486;BME280;60509;47.308;-122.428;2023-04-25T10:51:12;101526.24;;;16.71;25.19
72486;BME280;60509;47.308;-122.428;2023-04-25T10:53:33;101530.31;;;17.15;25.16
72486;BME280;60509;47.308;-122.428;2023-04-25T10:55:55;101525.78;;;17.14;24.97
72486;BME280;60509;47.308;-122.428;2023-04-25T10:58:23;101525.80;;;17.16;25.05
72486;BME280;60509;47.308;-122.428;2023-04-25T11:00:47;101522.88;;;16.63;25.27
72486;BME280;60509;47.308;-122.428;2023-04-25T11:03:17;101524.58;;;16.87;25.41
72486;BME280;60509;47.308;-122.428;2023-04-25T11:05:41;101525.70;;;16.26;25.50
72486;BME280;60509;47.308;-122.428;2023-04-25T11:08:11;101530.86;;;16.39;25.32
72486;BME280;60509;47.308;-122.428;2023-04-25T11:10:32;101528.21;;;16.35;25.48
72486;BME280;60509;47.308;-122.428;2023-04-25T11:12:57;101524.66;;;16.26;25.42
72486;BME280;60509;47.308;-122.428;2023-04-25T11:15:23;101520.39;;;16.63;25.45
72486;BME280;60509;47.308;-122.428;2023-04-25T11:17:51;101509.19;;;16.11;25.55
72486;BME280;60509;47.308;-122.428;2023-04-25T11:20:15;101505.08;;;16.45;25.26
72486;BME280;60509;47.308;-122.428;2023-04-25T11:22:42;101513.21;;;16.67;25.27
72486;BME280;60509;47.308;-122.428;2023-04-25T11:25:08;101519.85;;;17.06;24.99
72486;BME280;60509;47.308;-122.428;2023-04-25T11:27:33;101516.63;;;16.79;25.10
72486;BME280;60509;47.308;-122.428;2023-04-25T11:29:59;101520.53;;;16.84;25.14
72486;BME280;60509;47.308;-122.428;2023-04-25T11:32:25;101522.34;;;16.65;25.32
72486;BME280;60509;47.308;-122.428;2023-04-25T11:34:52;101521.50;;;16.46;25.39
72486;BME280;60509;47.308;-122.428;2023-04-25T11:37:16;101519.04;;;16.09;25.49
72486;BME280;60509;47.308;-122.428;2023-04-25T11:39:44;101521.15;;;16.39;25.60
72486;BME280;60509;47.308;-122.428;2023-04-25T11:42:09;101518.34;;;16.48;25.53
72486;BME280;60509;47.308;-122.428;2023-04-25T11:44:34;101523.69;;;16.03;25.45
72486;BME280;60509;47.308;-122.428;2023-04-25T11:47:00;101527.01;;;16.16;25.50
72486;BME280;60509;47.308;-122.428;2023-04-25T11:49:31;101520.80;;;16.55;25.38
72486;BME280;60509;47.308;-122.428;2023-04-25T11:51:52;101517.25;;;16.52;25.22
72486;BME280;60509;47.308;-122.428;2023-04-25T11:54:18;101522.57;;;17.28;25.04
72486;BME280;60509;47.308;-122.428;2023-04-25T11:56:45;101529.57;;;17.25;25.06
72486;BME280;60509;47.308;-122.428;2023-04-25T11:59:10;101529.37;;;16.78;25.15
72486;BME280;60509;47.308;-122.428;2023-04-25T12:01:37;101533.69;;;16.31;25.34
72486;BME280;60509;47.308;-122.428;2023-04-25T12:04:12;101534.16;;;16.15;25.47
72486;BME280;60509;47.308;-122.428;2023-04-25T12:06:28;101528.68;;;16.31;25.44
72486;BME280;60509;47.308;-122.428;2023-04-25T12:09:10;101518.09;;;16.28;25.63
72486;BME280;60509;47.308;-122.428;2023-04-25T12:11:23;101518.96;;;16.15;25.43
72486;BME280;60509;47.308;-122.428;2023-04-25T12:13:46;101528.91;;;16.46;25.50